deformed-offering
Saratoga-Weather Station Historical Data
 
Daily Summary for March 03, 2021 Units:  English    Metric   Both
Daily Weekly Monthly Yearly
  Current: High: Low: Average:
Temperature: 45.8 °F 67.4 °F 44.1 °F 52.9 °F
Dew Point: 37.6 °F 47.7 °F 36.2 °F 40.6 °F
Humidity: 73% 82% 32.8% 65%
Wind Speed: 0mph 6.4mph 0mph 1.1mph
Wind Gust: 0mph 15mph - -
WindCalm - - SSE
Pressure: 30.02 in 30.02 in 29.72 in -
Precipitation: 0.00 in      
 
 
Tabular Data for March 03, 2021
Time Temperature Dew Point Pressure Wind Wind Speed Wind Gust Humidity Rainfall Rate (Hourly) solar
00:04 48.7 °F 40.9 °F 29.78 in Calm     74.2% 0.00 in 0 W/m2
00:09 48.6 °F 40.7 °F 29.78 in Calm     74.2% 0.00 in 0 W/m2
00:14 48.5 °F 40.8 °F 29.77 in Calm     74.8% 0.00 in 0 W/m2
00:19 48.3 °F 40.7 °F 29.78 in Calm     74.7% 0.00 in 0 W/m2
00:24 48.3 °F 40.6 °F 29.78 in Calm     74.9% 0.00 in 0 W/m2
00:29 48.2 °F 40.6 °F 29.77 in Calm     75% 0.00 in 0 W/m2
00:34 48 °F 40.5 °F 29.77 in Calm     75% 0.00 in 0 W/m2
00:39 48 °F 40.4 °F 29.77 in Calm     74.9% 0.00 in 0 W/m2
00:44 47.9 °F 40.2 °F 29.77 in Calm     74.4% 0.00 in 0 W/m2
00:49 47.7 °F 40.2 °F 29.77 in Calm     75% 0.00 in 0 W/m2
00:54 47.7 °F 40.2 °F 29.77 in Calm     75% 0.00 in 0 W/m2
00:59 47.6 °F 40.2 °F 29.77 in Calm     75.3% 0.00 in 0 W/m2
01:04 47.6 °F 40.4 °F 29.77 in Calm     76% 0.00 in 0 W/m2
01:09 47.6 °F 40.4 °F 29.77 in Calm     76% 0.00 in 0 W/m2
01:14 47.6 °F 40.4 °F 29.77 in Calm     76% 0.00 in 0 W/m2
01:19 47.6 °F 40.4 °F 29.77 in Calm     76% 0.00 in 0 W/m2
01:24 47.6 °F 40.4 °F 29.76 in Calm     76% 0.00 in 0 W/m2
01:29 47.4 °F 40.2 °F 29.76 in Calm     76% 0.00 in 0 W/m2
01:34 47.4 °F 40.2 °F 29.76 in Calm     76% 0.00 in 0 W/m2
01:39 47.4 °F 40.2 °F 29.76 in Calm     76% 0.00 in 0 W/m2
01:44 47.3 °F 40.2 °F 29.76 in Calm     76.2% 0.00 in 0 W/m2
01:49 47.3 °F 40.5 °F 29.76 in Calm     77% 0.00 in 0 W/m2
01:54 47.2 °F 40.4 °F 29.76 in Calm     77% 0.00 in 0 W/m2
01:59 47.1 °F 40.3 °F 29.76 in Calm     77% 0.00 in 0 W/m2
02:04 47 °F 40 °F 29.76 in Calm     76.5% 0.00 in 0 W/m2
02:09 46.9 °F 39.7 °F 29.76 in Calm     76% 0.00 in 0 W/m2
02:14 46.8 °F 39.4 °F 29.75 in Calm     75.4% 0.00 in 0 W/m2
02:19 46.7 °F 39.3 °F 29.75 in Calm     75.3% 0.00 in 0 W/m2
02:24 46.7 °F 39.5 °F 29.75 in Calm     76% 0.00 in 0 W/m2
02:29 46.7 °F 39.8 °F 29.74 in Calm     76.8% 0.00 in 0 W/m2
02:34 46.7 °F 39.9 °F 29.74 in Calm     77% 0.00 in 0 W/m2
02:39 46.6 °F 39.8 °F 29.74 in Calm     77% 0.00 in 0 W/m2
02:44 46.5 °F 39.7 °F 29.74 in Calm     77% 0.00 in 0 W/m2
02:49 46.5 °F 39.5 °F 29.74 in Calm     76.4% 0.00 in 0 W/m2
02:54 46.4 °F 39.3 °F 29.74 in Calm     76.3% 0.00 in 0 W/m2
02:59 46.4 °F 39.4 °F 29.74 in Calm     76.4% 0.00 in 0 W/m2
03:04 46.4 °F 39.2 °F 29.74 in Calm     76% 0.00 in 0 W/m2
03:09 46.3 °F 39.1 °F 29.74 in Calm     76% 0.00 in 0 W/m2
03:14 46.3 °F 39.2 °F 29.74 in Calm     76.3% 0.00 in 0 W/m2
03:19 46.2 °F 39.2 °F 29.73 in Calm     76.4% 0.00 in 0 W/m2
03:24 46.2 °F 39.4 °F 29.73 in Calm     77% 0.00 in 0 W/m2
03:29 46.2 °F 39.4 °F 29.73 in Calm     77.1% 0.00 in 0 W/m2
03:34 46.2 °F 39.7 °F 29.73 in Calm     78% 0.00 in 0 W/m2
03:39 46.1 °F 39.6 °F 29.73 in Calm     78% 0.00 in 0 W/m2
03:44 46.1 °F 39.6 °F 29.73 in Calm     78% 0.00 in 0 W/m2
03:49 46.1 °F 39.6 °F 29.73 in Calm     78% 0.00 in 0 W/m2
03:54 46.1 °F 39.6 °F 29.73 in Calm     78% 0.00 in 0 W/m2
03:59 46 °F 39.5 °F 29.73 in Calm     78% 0.00 in 0 W/m2
04:04 46 °F 39.5 °F 29.73 in Calm     78% 0.00 in 0 W/m2
04:09 46 °F 39.5 °F 29.73 in Calm     78% 0.00 in 0 W/m2
04:14 45.8 °F 39.3 °F 29.73 in Calm     78% 0.00 in 0 W/m2
04:19 45.8 °F 39.3 °F 29.73 in Calm     78% 0.00 in 0 W/m2
04:24 45.8 °F 39.3 °F 29.73 in Calm     78% 0.00 in 0 W/m2
04:29 45.7 °F 39.3 °F 29.73 in Calm     78.2% 0.00 in 0 W/m2
04:34 45.7 °F 39.2 °F 29.73 in Calm     78% 0.00 in 0 W/m2
04:39 45.7 °F 39.2 °F 29.72 in Calm     78% 0.00 in 0 W/m2
04:44 45.5 °F 39 °F 29.72 in Calm     78% 0.00 in 0 W/m2
04:49 45.5 °F 39 °F 29.73 in Calm     78% 0.00 in 0 W/m2
04:54 45.4 °F 39.2 °F 29.73 in Calm     78.7% 0.00 in 0 W/m2
04:59 45.4 °F 39.3 °F 29.73 in Calm     79% 0.00 in 0 W/m2
05:04 45.3 °F 39.2 °F 29.73 in Calm     79% 0.00 in 0 W/m2
05:09 45.2 °F 39.1 °F 29.73 in Calm     79% 0.00 in 0 W/m2
05:14 45.2 °F 39.1 °F 29.73 in Calm     79% 0.00 in 0 W/m2
05:19 45.1 °F 38.8 °F 29.73 in Calm     78.5% 0.00 in 0 W/m2
05:24 44.9 °F 38.8 °F 29.73 in Calm     79% 0.00 in 0 W/m2
05:29 44.9 °F 38.8 °F 29.73 in Calm     79% 0.00 in 0 W/m2
05:34 44.8 °F 38.6 °F 29.72 in Calm     78.7% 0.00 in 0 W/m2
05:39 44.7 °F 38.3 °F 29.72 in Calm     78% 0.00 in 0 W/m2
05:44 44.6 °F 38.2 °F 29.72 in Calm     78% 0.00 in 0 W/m2
05:49 44.6 °F 38.2 °F 29.72 in Calm     78% 0.00 in 0 W/m2
05:54 44.6 °F 38.2 °F 29.72 in Calm     78% 0.00 in 0 W/m2
05:59 44.5 °F 38.1 °F 29.72 in Calm     78% 0.00 in 0 W/m2
06:09 44.4 °F 38.2 °F 29.72 in Calm     78.6% 0.00 in 0 W/m2
06:14 44.3 °F 38.2 °F 29.73 in Calm     79% 0.00 in 0 W/m2
06:19 44.3 °F 38.2 °F 29.73 in Calm     79% 0.00 in 0 W/m2
06:24 44.2 °F 38.1 °F 29.73 in Calm     78.7% 0.00 in 0 W/m2
06:29 44.2 °F 37.8 °F 29.73 in Calm     78% 0.00 in 0 W/m2
06:34 44.2 °F 37.8 °F 29.73 in Calm     78% 0.00 in 0 W/m2
06:39 44.1 °F 37.7 °F 29.73 in Calm     78% 0.00 in 0 W/m2
06:44 44.1 °F 37.7 °F 29.73 in Calm     78% 0.00 in 0 W/m2
06:49 44.1 °F 37.7 °F 29.73 in Calm     78% 0.00 in 5 W/m2
06:54 44.1 °F 37.9 °F 29.73 in Calm     78.8% 0.00 in 9 W/m2
06:59 44.1 °F 38 °F 29.73 in Calm     79% 0.00 in 16 W/m2
07:04 44.1 °F 38 °F 29.74 in Calm     79% 0.00 in 18 W/m2
07:09 44.1 °F 38.1 °F 29.74 in Calm     79.3% 0.00 in 25 W/m2
07:14 44.1 °F 38 °F 29.74 in Calm     79% 0.00 in 32 W/m2
07:19 44.1 °F 38 °F 29.74 in Calm     79% 0.00 in 39 W/m2
07:24 44.1 °F 38.2 °F 29.74 in Calm     79.6% 0.00 in 48 W/m2
07:29 44.2 °F 38.4 °F 29.74 in Calm     80% 0.00 in 51 W/m2
07:34 44.2 °F 38.4 °F 29.75 in Calm     80% 0.00 in 63 W/m2
07:39 44.4 °F 38.8 °F 29.75 in Calm     80.9% 0.00 in 72 W/m2
07:44 44.5 °F 39 °F 29.75 in Calm     81% 0.00 in 77 W/m2
07:49 44.6 °F 39.1 °F 29.75 in Calm     81% 0.00 in 81 W/m2
07:54 44.7 °F 39.3 °F 29.75 in Calm     81.4% 0.00 in 88 W/m2
07:59 44.8 °F 39.5 °F 29.75 in Calm     81.6% 0.00 in 99 W/m2
08:04 44.9 °F 39.6 °F 29.75 in Calm     81.6% 0.00 in 107 W/m2
08:09 45.1 °F 39.9 °F 29.75 in Calm     82% 0.00 in 111 W/m2
08:14 45.2 °F 40 °F 29.75 in Calm     81.9% 0.00 in 114 W/m2
08:19 45.2 °F 39.7 °F 29.75 in Calm     81% 0.00 in 118 W/m2
08:24 45.4 °F 40 °F 29.75 in Calm     81.6% 0.00 in 123 W/m2
08:29 45.5 °F 40.3 °F 29.75 in Calm     82% 0.00 in 130 W/m2
08:34 45.6 °F 40.4 °F 29.75 in Calm     82% 0.00 in 143 W/m2
08:39 45.8 °F 40.6 °F 29.75 in Calm     82% 0.00 in 167 W/m2
08:44 46 °F 40.8 °F 29.75 in Calm     82% 0.00 in 199 W/m2
08:49 46.2 °F 41 °F 29.76 in NNW 0.6 mph 3.5 mph 82% 0.00 in 229 W/m2
08:54 46.4 °F 41.2 °F 29.76 in North 1.1 mph 3.5 mph 82% 0.00 in 255 W/m2
08:59 46.7 °F 41.4 °F 29.76 in ESE 0.8 mph 3.5 mph 81.7% 0.00 in 255 W/m2
09:04 47 °F 41.7 °F 29.77 in ESE 1.8 mph 6 mph 81.7% 0.00 in 255 W/m2
09:09 47.3 °F 41.9 °F 29.77 in ESE 1.2 mph 6 mph 81.3% 0.00 in 311 W/m2
09:14 47.7 °F 42.1 °F 29.77 in ESE 1.4 mph 5 mph 80.7% 0.00 in 336 W/m2
09:19 48 °F 42 °F 29.77 in Calm   3 mph 79.7% 0.00 in 336 W/m2
09:24 48.4 °F 41.7 °F 29.77 in Calm     77.6% 0.00 in 334 W/m2
09:29 48.8 °F 41.3 °F 29.77 in Calm     75.4% 0.00 in 334 W/m2
09:34 49.1 °F 41.5 °F 29.77 in ESE 0.6 mph 2.3 mph 75% 0.00 in 385 W/m2
09:39 49.5 °F 41.4 °F 29.76 in East 1.3 mph 3.5 mph 73.4% 0.00 in 394 W/m2
09:44 50 °F 41.2 °F 29.76 in East 0.4 mph 3.5 mph 71.7% 0.00 in 415 W/m2
09:49 50.5 °F 41.7 °F 29.76 in Calm   2 mph 71.9% 0.00 in 466 W/m2
09:54 51 °F 41.8 °F 29.76 in East 0.3 mph 3 mph 70.7% 0.00 in 537 W/m2
09:59 51.4 °F 41.4 °F 29.77 in ENE 2 mph 6 mph 68.6% 0.00 in 561 W/m2
10:04 51.9 °F 41.7 °F 29.76 in ENE 2.4 mph 6 mph 68% 0.00 in 540 W/m2
10:09 52.3 °F 41.4 °F 29.76 in ENE 1.3 mph 5 mph 66.1% 0.00 in 512 W/m2
10:14 52.8 °F 40.7 °F 29.76 in ENE 0.8 mph 5 mph 63.4% 0.00 in 544 W/m2
10:19 53.3 °F 41 °F 29.76 in ENE 1.4 mph 3.5 mph 63% 0.00 in 551 W/m2
10:24 53.7 °F 40.9 °F 29.76 in NE 2 mph 5 mph 61.7% 0.00 in 544 W/m2
10:29 54.3 °F 40.8 °F 29.76 in NE 1.4 mph 5 mph 60.3% 0.00 in 589 W/m2
10:34 54.7 °F 41.1 °F 29.76 in NE 1.5 mph 6 mph 60% 0.00 in 523 W/m2
10:39 55.1 °F 41.2 °F 29.76 in NE 1.2 mph 6 mph 59.3% 0.00 in 435 W/m2
10:44 55.5 °F 40.8 °F 29.76 in NE 1.9 mph 5 mph 57.7% 0.00 in 459 W/m2
10:49 55.9 °F 40.9 °F 29.76 in NE 1.5 mph 5 mph 57.2% 0.00 in 459 W/m2
10:54 56.2 °F 40.8 °F 29.76 in NE 0.7 mph 4 mph 56.2% 0.00 in 463 W/m2
10:59 56.5 °F 41 °F 29.76 in NE 1.7 mph 5 mph 55.9% 0.00 in 614 W/m2
11:04 56.8 °F 39.7 °F 29.76 in NE 1.5 mph 5 mph 52.9% 0.00 in 637 W/m2
11:09 57.2 °F 40.7 °F 29.76 in NE 1.4 mph 5 mph 54.1% 0.00 in 732 W/m2
11:14 57.6 °F 41.1 °F 29.76 in NE 0.9 mph 5 mph 54% 0.00 in 748 W/m2
11:19 58 °F 41.3 °F 29.76 in NE 2.6 mph 6 mph 53.7% 0.00 in 734 W/m2
11:24 58.4 °F 39.1 °F 29.76 in North 1.6 mph 6 mph 48.5% 0.00 in 672 W/m2
11:29 58.9 °F 39 °F 29.76 in North 1 mph 4 mph 47.6% 0.00 in 479 W/m2
11:34 59.2 °F 40.6 °F 29.76 in East 2.1 mph 5 mph 50% 0.00 in 688 W/m2
11:39 59.4 °F 41 °F 29.76 in ENE 2.8 mph 6 mph 50.4% 0.00 in 669 W/m2
11:44 59.6 °F 39.8 °F 29.76 in ENE 0.2 mph 6 mph 47.9% 0.00 in 792 W/m2
11:49 59.9 °F 41 °F 29.76 in ESE 1.5 mph 5 mph 49.6% 0.00 in 792 W/m2
11:54 60.2 °F 40.4 °F 29.76 in East 2.2 mph 6 mph 48% 0.00 in 728 W/m2
11:59 60.5 °F 39.6 °F 29.76 in NE 3.6 mph 7 mph 46% 0.00 in 651 W/m2
12:04 60.9 °F 38.8 °F 29.76 in NE 2.9 mph 7 mph 43.9% 0.00 in 642 W/m2
12:09 61.2 °F 38.7 °F 29.76 in NE 1.7 mph 3.5 mph 43.3% 0.00 in 637 W/m2
12:14 61.6 °F 39.2 °F 29.76 in NNE 1 mph 3.5 mph 43.5% 0.00 in 605 W/m2
12:19 61.9 °F 39.1 °F 29.76 in North 0.6 mph 3.5 mph 42.9% 0.00 in 457 W/m2
12:24 62.2 °F 38.4 °F 29.76 in NNE 2.1 mph 6 mph 41.4% 0.00 in 433 W/m2
12:29 62.5 °F 38.1 °F 29.76 in ENE 1.6 mph 6 mph 40.5% 0.00 in 501 W/m2
12:34 62.7 °F 39.9 °F 29.76 in East 1.3 mph 6 mph 43% 0.00 in 542 W/m2
12:39 63 °F 39.3 °F 29.75 in NNE 1.8 mph 7 mph 41.7% 0.00 in 632 W/m2
12:44 63.3 °F 39.3 °F 29.75 in NE 1.7 mph 7 mph 41.3% 0.00 in 646 W/m2
12:49 63.5 °F 39.8 °F 29.75 in East 3.1 mph 7 mph 41.6% 0.00 in 704 W/m2
12:54 63.8 °F 40.2 °F 29.75 in ENE 2.5 mph 7 mph 42% 0.00 in 699 W/m2
12:59 64 °F 39 °F 29.75 in NE 1.7 mph 6 mph 39.8% 0.00 in 561 W/m2
13:04 64.2 °F 37.3 °F 29.75 in North 0.7 mph 6 mph 36.8% 0.00 in 593 W/m2
13:09 64.5 °F 38.3 °F 29.75 in North 0.4 mph 5 mph 38.1% 0.00 in 632 W/m2
13:14 64.7 °F 37.9 °F 29.75 in North 1.6 mph 5 mph 37.2% 0.00 in 711 W/m2
13:19 65 °F 37 °F 29.75 in North 1.2 mph 5 mph 35.4% 0.00 in 695 W/m2
13:24 65.4 °F 37.8 °F 29.75 in North 0.9 mph 4 mph 36.2% 0.00 in 674 W/m2
13:29 65.7 °F 36.3 °F 29.75 in North 2.6 mph 6 mph 33.7% 0.00 in 591 W/m2
13:34 66 °F 36.2 °F 29.75 in North 1.5 mph 6 mph 33.2% 0.00 in 561 W/m2
13:39 66.3 °F 36.9 °F 29.75 in North 0.3 mph 3 mph 33.8% 0.00 in 621 W/m2
13:44 66.4 °F 36.3 °F 29.75 in North 1.3 mph 5 mph 32.9% 0.00 in 635 W/m2
13:49 66.7 °F 36.5 °F 29.75 in NE 2.1 mph 6 mph 32.8% 0.00 in 637 W/m2
13:54 66.9 °F 37.7 °F 29.75 in NE 3 mph 7 mph 34.2% 0.00 in 628 W/m2
13:59 67.1 °F 39 °F 29.75 in East 2.1 mph 7 mph 35.7% 0.00 in 596 W/m2
14:04 67.2 °F 39.9 °F 29.75 in ESE 2.7 mph 7 mph 36.9% 0.00 in 577 W/m2
14:09 67.3 °F 45.2 °F 29.75 in ESE 5.7 mph 12 mph 44.9% 0.00 in 567 W/m2
14:14 67.4 °F 47.5 °F 29.75 in ESE 5.4 mph 12 mph 49% 0.00 in 547 W/m2
14:19 67.3 °F 47.7 °F 29.75 in ESE 3.5 mph 12 mph 49.3% 0.00 in 570 W/m2
14:24 67.3 °F 47.5 °F 29.75 in SE 3.7 mph 9.2 mph 49% 0.00 in 570 W/m2
14:29 67.3 °F 47 °F 29.75 in ESE 4.3 mph 12 mph 48.1% 0.00 in 563 W/m2
14:34 67.3 °F 46.7 °F 29.76 in ESE 5.2 mph 12 mph 47.6% 0.00 in 552 W/m2
14:39 67.1 °F 46.4 °F 29.76 in ESE 6.3 mph 13 mph 47.3% 0.00 in 538 W/m2
14:44 66.9 °F 46.4 °F 29.76 in ESE 5 mph 13 mph 47.7% 0.00 in 524 W/m2
14:49 66.8 °F 45.9 °F 29.76 in SE 5.2 mph 13 mph 47% 0.00 in 514 W/m2
14:54 66.4 °F 45.1 °F 29.76 in SE 4.5 mph 13 mph 46.1% 0.00 in 510 W/m2
14:58 66.3 °F 45.4 °F 29.76 in SE 4.5 mph 12 mph 46.9% 0.00 in 503 W/m2
15:04 66.2 °F 45.6 °F 29.77 in SE 3.4 mph 10.4 mph 47.5% 0.00 in 500 W/m2
15:09 66.1 °F 45.9 °F 29.77 in SE 2.9 mph 10 mph 48.1% 0.00 in 494 W/m2
15:14 66.1 °F 45.6 °F 29.77 in SSE 2.9 mph 12 mph 47.6% 0.00 in 484 W/m2
15:19 66.1 °F 46.1 °F 29.78 in SSE 4.1 mph 12 mph 48.6% 0.00 in 461 W/m2
15:24 65.9 °F 45.9 °F 29.78 in SSE 3.7 mph 12 mph 48.4% 0.00 in 461 W/m2
15:29 65.7 °F 45.9 °F 29.78 in SE 2.5 mph 12 mph 48.8% 0.00 in 456 W/m2
15:34 65.6 °F 45.3 °F 29.78 in SSW 3.2 mph 7 mph 47.9% 0.00 in 463 W/m2
15:39 65.5 °F 45 °F 29.78 in SSW 4.2 mph 12 mph 47.6% 0.00 in 470 W/m2
15:44 65.5 °F 45.1 °F 29.79 in SW 3.4 mph 12 mph 47.7% 0.00 in 493 W/m2
15:49 65.6 °F 44.8 °F 29.79 in SW 5.5 mph 13 mph 47.1% 0.00 in 493 W/m2
15:54 65.6 °F 45.3 °F 29.79 in SW 5.1 mph 13 mph 47.8% 0.00 in 475 W/m2
15:59 65.6 °F 45.7 °F 29.79 in WSW 4.2 mph 12 mph 48.7% 0.00 in 326 W/m2
16:04 65.5 °F 45.7 °F 29.79 in WSW 4 mph 11.5 mph 48.8% 0.00 in 232 W/m2
16:09 65.3 °F 45.9 °F 29.80 in SSW 3.9 mph 12 mph 49.4% 0.00 in 211 W/m2
16:14 65 °F 45.6 °F 29.80 in SW 2.5 mph 10.4 mph 49.4% 0.00 in 211 W/m2
16:19 64.7 °F 45.1 °F 29.80 in SW 4.1 mph 12 mph 49% 0.00 in 236 W/m2
16:24 64.2 °F 44.9 °F 29.81 in WSW 5 mph 13 mph 49.4% 0.00 in 301 W/m2
16:29 64 °F 44.9 °F 29.81 in WSW 4 mph 15 mph 49.9% 0.00 in 303 W/m2
16:34 63.6 °F 44.6 °F 29.81 in SW 5.8 mph 15 mph 50.1% 0.00 in 276 W/m2
16:39 63.1 °F 44.5 °F 29.82 in WSW 4.1 mph 15 mph 50.8% 0.00 in 195 W/m2
16:44 62.4 °F 44.2 °F 29.82 in SW 6.2 mph 14 mph 51.4% 0.00 in 157 W/m2
16:49 61.8 °F 44.1 °F 29.83 in SW 6 mph 14 mph 52.2% 0.00 in 141 W/m2
16:53 61.2 °F 43.9 °F 29.83 in SW 6.4 mph 13 mph 53% 0.00 in 135 W/m2
16:59 60.9 °F 44.2 °F 29.83 in SSW 5.3 mph 13 mph 54.2% 0.00 in 190 W/m2
17:04 60.5 °F 44.1 °F 29.84 in SW 4.9 mph 13 mph 54.7% 0.00 in 197 W/m2
17:09 60.3 °F 43.9 °F 29.84 in SW 5.8 mph 11.5 mph 54.5% 0.00 in 195 W/m2
17:14 60 °F 43.8 °F 29.84 in SW 3.9 mph 10.4 mph 54.9% 0.00 in 190 W/m2
17:19 59.9 °F 43.7 °F 29.84 in SW 4.5 mph 10.4 mph 55% 0.00 in 178 W/m2
17:24 59.7 °F 43.6 °F 29.85 in SW 4.2 mph 11.5 mph 55.2% 0.00 in 150 W/m2
17:29 59.4 °F 43.2 °F 29.86 in SW 4.2 mph 12 mph 55% 0.00 in 91 W/m2
17:34 59.2 °F 42.8 °F 29.86 in SW 3.6 mph 10 mph 54.5% 0.00 in 72 W/m2
17:39 59 °F 42.9 °F 29.86 in SSW 1.1 mph 8 mph 55.3% 0.00 in 51 W/m2
17:44 58.7 °F 42.3 °F 29.86 in SW 3 mph 10.4 mph 54.3% 0.00 in 40 W/m2
17:49 58.4 °F 42.1 °F 29.86 in SSW 2.7 mph 9 mph 54.6% 0.00 in 28 W/m2
17:53 58 °F 41.7 °F 29.87 in South 4.2 mph 10.4 mph 54.6% 0.00 in 16 W/m2
17:59 57.6 °F 41.5 °F 29.87 in South 0.6 mph 10 mph 55.1% 0.00 in 12 W/m2
18:04 57.4 °F 41.8 °F 29.88 in East 0.3 mph 3.5 mph 55.9% 0.00 in 7 W/m2
18:09 57.1 °F 40.6 °F 29.88 in SW 0.2 mph 3 mph 54.1% 0.00 in 0 W/m2
18:14 56.8 °F 40.8 °F 29.88 in Calm   1 mph 54.9% 0.00 in 0 W/m2
18:19 56.6 °F 41.1 °F 29.89 in Calm     56.1% 0.00 in 0 W/m2
18:24 56.3 °F 42.1 °F 29.89 in Calm     58.9% 0.00 in 0 W/m2
18:28 56.1 °F 42.1 °F 29.89 in Calm     59.4% 0.00 in 0 W/m2
18:34 55.7 °F 42 °F 29.89 in Calm     60% 0.00 in 0 W/m2
18:39 55.4 °F 41.7 °F 29.90 in Calm     60% 0.00 in 0 W/m2
18:44 55 °F 41.5 °F 29.91 in Calm     60.3% 0.00 in 0 W/m2
18:49 54.6 °F 41.4 °F 29.91 in Calm   6 mph 61% 0.00 in 0 W/m2
18:54 54.4 °F 41.2 °F 29.91 in West 0.8 mph 6 mph 61% 0.00 in 0 W/m2
18:59 54.1 °F 40.7 °F 29.91 in Calm   6 mph 60.4% 0.00 in 0 W/m2
19:04 53.9 °F 40.7 °F 29.92 in Calm   1 mph 61% 0.00 in 0 W/m2
19:09 53.6 °F 40.8 °F 29.92 in Calm   1.2 mph 61.8% 0.00 in 0 W/m2
19:14 53.3 °F 40.8 °F 29.93 in Calm   1 mph 62.3% 0.00 in 0 W/m2
19:19 53.1 °F 40.8 °F 29.93 in West 0.2 mph 2.3 mph 63% 0.00 in 0 W/m2
19:24 52.9 °F 40.6 °F 29.94 in West 0.2 mph 2.3 mph 63% 0.00 in 0 W/m2
19:29 52.6 °F 40.8 °F 29.94 in WSW 0.5 mph 3 mph 63.9% 0.00 in 0 W/m2
19:34 52.4 °F 40.6 °F 29.94 in WSW 0.2 mph 3.5 mph 64% 0.00 in 0 W/m2
19:39 52.2 °F 40.5 °F 29.94 in WSW 0.3 mph 2.3 mph 64.1% 0.00 in 0 W/m2
19:44 52 °F 40.6 °F 29.94 in WSW 0.2 mph 2.3 mph 65% 0.00 in 0 W/m2
19:49 51.8 °F 40.4 °F 29.95 in SW 0.7 mph 3.5 mph 65% 0.00 in 0 W/m2
19:54 51.6 °F 40.5 °F 29.95 in Calm   3 mph 65.8% 0.00 in 0 W/m2
19:59 51.4 °F 40.4 °F 29.95 in WSW 0.2 mph 2.3 mph 66.1% 0.00 in 0 W/m2
20:04 51.2 °F 40.6 °F 29.95 in WSW 0.9 mph 6 mph 67% 0.00 in 0 W/m2
20:09 51 °F 40.8 °F 29.95 in SW 0.5 mph 5.8 mph 67.9% 0.00 in 0 W/m2
20:14 50.8 °F 40.6 °F 29.95 in Calm   3 mph 68% 0.00 in 0 W/m2
20:19 50.7 °F 40.5 °F 29.95 in Calm     68% 0.00 in 0 W/m2
20:24 50.5 °F 40.3 °F 29.95 in Calm     68.2% 0.00 in 0 W/m2
20:29 50.2 °F 40 °F 29.96 in Calm     68% 0.00 in 0 W/m2
20:34 49.9 °F 40.1 °F 29.96 in Calm     68.9% 0.00 in 0 W/m2
20:39 49.6 °F 39.9 °F 29.96 in Calm     69.1% 0.00 in 0 W/m2
20:44 49.4 °F 40 °F 29.97 in Calm     70% 0.00 in 0 W/m2
20:49 49.2 °F 40.1 °F 29.97 in SW 0.3 mph 2.3 mph 70.7% 0.00 in 0 W/m2
20:54 48.9 °F 39.9 °F 29.97 in SW 0.1 mph 2 mph 71% 0.00 in 0 W/m2
20:59 48.7 °F 39.8 °F 29.97 in Calm     71.1% 0.00 in 0 W/m2
21:04 48.5 °F 39.9 °F 29.98 in Calm     72% 0.00 in 0 W/m2
21:09 48.2 °F 39.7 °F 29.98 in Calm   2 mph 72.3% 0.00 in 0 W/m2
21:14 48.1 °F 39.8 °F 29.98 in SW 0.1 mph 2.3 mph 73% 0.00 in 0 W/m2
21:19 47.9 °F 39.6 °F 29.99 in Calm   2 mph 72.7% 0.00 in 0 W/m2
21:24 47.7 °F 39.4 °F 29.99 in Calm     72.9% 0.00 in 0 W/m2
21:29 47.4 °F 39.2 °F 29.99 in Calm     73% 0.00 in 0 W/m2
21:34 47.3 °F 39.1 °F 30.00 in Calm     73% 0.00 in 0 W/m2
21:39 47 °F 38.8 °F 30.00 in Calm     73% 0.00 in 0 W/m2
21:44 46.8 °F 38.6 °F 30.00 in Calm     73% 0.00 in 0 W/m2
21:48 46.5 °F 38.3 °F 30.00 in Calm     73% 0.00 in 0 W/m2
21:54 46.3 °F 38.5 °F 30.00 in Calm     74% 0.00 in 0 W/m2
21:59 46.2 °F 38.4 °F 30.01 in Calm     74% 0.00 in 0 W/m2
22:04 46.1 °F 38.3 °F 30.01 in Calm     74% 0.00 in 0 W/m2
22:09 46 °F 38.1 °F 30.01 in Calm     73.7% 0.00 in 0 W/m2
22:13 45.8 °F 37.6 °F 30.02 in Calm     73% 0.00 in 0 W/m2
Saratoga, California, USA
Compliments of Weather Underground - 2 mb

WU-history PHP script courtesy of Juneau County Weather and modified for WU/TWC API use by Saratoga-weather.org

This script set is available on GitHub.

deformed-offering